createdAt,value
2019-02-15T00:03:48.779Z,42
2019-02-15T00:13:52.197Z,42
2019-02-15T00:23:55.633Z,42
2019-02-15T00:33:59.090Z,42
2019-02-15T00:44:02.511Z,42
2019-02-15T00:54:06.013Z,41
2019-02-15T01:04:09.423Z,42
2019-02-15T01:14:13.843Z,41
2019-02-15T01:24:17.281Z,39
2019-02-15T01:34:20.708Z,39
2019-02-15T01:44:24.175Z,39
2019-02-15T01:54:27.601Z,39
2019-02-15T02:04:31.038Z,38
2019-02-15T02:14:34.490Z,38
2019-02-15T02:24:37.930Z,39
2019-02-15T02:34:41.374Z,39
2019-02-15T02:44:44.836Z,39
2019-02-15T02:54:48.232Z,39
2019-02-15T03:04:51.681Z,38
2019-02-15T03:14:55.142Z,38
2019-02-15T03:24:58.601Z,40
2019-02-15T03:35:02.077Z,42
2019-02-15T03:45:05.581Z,40
2019-02-15T03:55:09.055Z,40
2019-02-15T04:05:12.526Z,42
2019-02-15T04:15:15.978Z,41
2019-02-15T04:25:19.473Z,42
2019-02-15T04:35:23.960Z,41
2019-02-15T04:45:27.505Z,42
2019-02-15T04:55:30.968Z,41
2019-02-15T05:05:34.459Z,42
2019-02-15T05:15:37.909Z,45
2019-02-15T05:25:41.369Z,43
2019-02-15T05:35:44.816Z,45
2019-02-15T05:45:48.270Z,44
2019-02-15T05:55:52.705Z,44
2019-02-15T06:05:56.162Z,45
2019-02-15T06:15:59.637Z,47
2019-02-15T06:26:03.165Z,46
2019-02-15T06:36:06.658Z,49
2019-02-15T06:46:10.102Z,53
2019-02-15T06:56:13.550Z,54
2019-02-15T07:06:16.979Z,52
2019-02-15T07:16:20.404Z,54
2019-02-15T07:26:23.872Z,58
2019-02-15T07:36:27.312Z,55
2019-02-15T07:46:30.766Z,56
2019-02-15T07:56:34.199Z,53
2019-02-15T08:06:38.615Z,25
2019-02-15T08:16:42.064Z,42
2019-02-15T08:26:46.514Z,46
2019-02-15T08:36:49.946Z,42
2019-02-15T08:46:53.362Z,43
2019-02-15T08:56:56.820Z,45
2019-02-15T09:07:00.247Z,46
2019-02-15T09:17:03.652Z,45
2019-02-15T09:27:07.090Z,42
2019-02-15T09:37:10.527Z,41
2019-02-15T09:47:13.954Z,41
2019-02-15T09:57:17.370Z,41
2019-02-15T10:07:20.803Z,43
2019-02-15T10:17:24.235Z,42
2019-02-15T10:27:27.680Z,43
2019-02-15T10:37:31.141Z,44
2019-02-15T10:47:34.574Z,44
2019-02-15T10:57:37.959Z,43
2019-02-15T11:07:41.415Z,42
2019-02-15T11:17:44.868Z,43
2019-02-15T11:27:48.314Z,42
2019-02-15T11:37:51.751Z,42
2019-02-15T11:47:55.204Z,41
2019-02-15T11:57:58.642Z,41
2019-02-15T12:08:02.105Z,39
2019-02-15T12:18:05.560Z,40
2019-02-15T12:28:08.995Z,40
2019-02-15T12:38:12.458Z,40
2019-02-15T12:48:15.915Z,40
2019-02-15T12:58:19.365Z,20
2019-02-15T13:08:22.820Z,40
2019-02-15T13:18:26.275Z,40
2019-02-15T13:28:29.747Z,40
2019-02-15T13:38:33.193Z,41
2019-02-15T13:48:36.613Z,41
2019-02-15T13:58:40.026Z,41
2019-02-15T14:08:43.464Z,40
2019-02-15T14:18:46.911Z,41
2019-02-15T14:28:50.347Z,41
2019-02-15T14:38:53.811Z,41
2019-02-15T14:48:57.240Z,41
2019-02-15T14:59:00.655Z,41
2019-02-15T15:09:04.088Z,41
2019-02-15T15:19:07.523Z,42
2019-02-15T15:29:10.950Z,42
2019-02-15T15:39:14.407Z,42
2019-02-15T15:49:17.875Z,42
2019-02-15T15:59:21.332Z,44
2019-02-15T16:09:25.065Z,45
2019-02-15T16:19:28.753Z,45
2019-02-15T16:29:32.189Z,46
2019-02-15T16:39:35.619Z,46
2019-02-15T16:49:39.051Z,46
2019-02-15T16:59:42.476Z,47
2019-02-15T17:09:45.904Z,45
2019-02-15T17:19:49.345Z,48
2019-02-15T17:29:52.813Z,48
2019-02-15T17:39:56.231Z,51
2019-02-15T17:49:59.660Z,55
2019-02-15T18:00:03.100Z,47
2019-02-15T18:10:06.540Z,49
2019-02-15T18:20:10.001Z,47
2019-02-15T18:30:13.451Z,47
2019-02-15T18:40:16.852Z,46
2019-02-15T18:50:20.282Z,45
2019-02-15T19:00:23.767Z,46
2019-02-15T19:10:27.203Z,47
2019-02-15T19:20:30.674Z,47
2019-02-15T19:30:34.128Z,47
2019-02-15T19:40:37.530Z,46
2019-02-15T19:50:40.949Z,45
2019-02-15T20:00:44.406Z,46
2019-02-15T20:10:47.914Z,45
2019-02-15T20:20:51.359Z,43
2019-02-15T20:30:54.811Z,46
2019-02-15T20:40:58.263Z,44
2019-02-15T20:51:01.696Z,44
2019-02-15T21:01:05.118Z,45
2019-02-15T21:11:08.657Z,46
2019-02-15T21:21:12.151Z,44
2019-02-15T21:31:15.581Z,44
2019-02-15T21:41:19.017Z,46
2019-02-15T21:51:22.448Z,43
2019-02-15T22:01:25.848Z,44
2019-02-15T22:11:29.294Z,46
2019-02-15T22:21:32.712Z,46
2019-02-15T22:31:36.152Z,47
2019-02-15T22:41:39.607Z,44
2019-02-15T22:51:44.062Z,46
2019-02-15T23:01:47.521Z,46
2019-02-15T23:11:50.963Z,44
2019-02-15T23:21:54.416Z,45
2019-02-15T23:31:57.842Z,45
2019-02-15T23:42:01.255Z,43
2019-02-15T23:52:04.670Z,43
